createdAt,value
2017-03-25T00:01:04.335Z,948.6
2017-03-25T00:02:12.514Z,948.6
2017-03-25T00:03:20.675Z,948.6
2017-03-25T00:04:29.116Z,948.6
2017-03-25T00:05:36.750Z,948.5
2017-03-25T00:06:44.790Z,948.6
2017-03-25T00:07:52.876Z,948.6
2017-03-25T00:09:00.963Z,948.5
2017-03-25T00:10:09.053Z,948.6
2017-03-25T00:11:17.201Z,948.6
2017-03-25T00:12:25.231Z,948.6
2017-03-25T00:13:33.452Z,948.6
2017-03-25T00:14:41.405Z,948.6
2017-03-25T00:15:49.494Z,948.7
2017-03-25T00:16:57.634Z,948.6
2017-03-25T00:18:05.669Z,948.6
2017-03-25T00:19:13.756Z,948.7
2017-03-25T00:20:22.348Z,948.6
2017-03-25T00:21:29.934Z,948.6
2017-03-25T00:22:38.076Z,948.6
2017-03-25T00:23:46.190Z,948.6
2017-03-25T00:24:54.273Z,948.6
2017-03-25T00:26:02.288Z,948.5
2017-03-25T00:27:10.374Z,948.6
2017-03-25T00:28:18.515Z,948.6
2017-03-25T00:29:26.547Z,948.6
2017-03-25T00:30:34.635Z,948.5
2017-03-25T00:31:42.721Z,948.5
2017-03-25T00:32:50.826Z,948.5
2017-03-25T00:33:58.963Z,948.5
2017-03-25T00:35:07.030Z,948.5
2017-03-25T00:36:15.589Z,948.5
2017-03-25T00:37:23.175Z,948.5
2017-03-25T00:38:31.267Z,948.5
2017-03-25T00:39:39.529Z,948.5
2017-03-25T00:40:47.441Z,948.5
2017-03-25T00:41:55.530Z,948.5
2017-03-25T00:43:03.620Z,948.6
2017-03-25T00:44:11.713Z,948.5
2017-03-25T00:45:19.859Z,948.5
2017-03-25T00:46:27.931Z,948.5
2017-03-25T00:47:35.980Z,948.4
2017-03-25T00:48:44.062Z,948.5
2017-03-25T00:49:52.197Z,948.4
2017-03-25T00:51:00.326Z,948.4
2017-03-25T00:52:08.832Z,948.4
2017-03-25T00:53:16.421Z,948.4
2017-03-25T00:54:24.515Z,948.4
2017-03-25T00:55:32.723Z,948.4
2017-03-25T00:56:40.744Z,948.4
2017-03-25T00:57:48.776Z,948.4
2017-03-25T00:58:56.867Z,948.3
2017-03-25T01:00:04.955Z,948.4
2017-03-25T01:01:13.045Z,948.4
2017-03-25T01:02:21.190Z,948.4
2017-03-25T01:03:29.222Z,948.3
2017-03-25T01:04:37.397Z,948.3
2017-03-25T01:05:45.422Z,948.3
2017-03-25T01:06:53.613Z,948.3
2017-03-25T01:08:04.201Z,948.3
2017-03-25T01:09:09.670Z,948.3
2017-03-25T01:10:18.393Z,948.3
2017-03-25T01:11:25.836Z,948.3
2017-03-25T01:12:33.924Z,948.2
2017-03-25T01:13:42.317Z,948.3
2017-03-25T01:14:50.404Z,948.3
2017-03-25T01:15:58.199Z,948.3
2017-03-25T01:17:06.354Z,948.3
2017-03-25T01:18:14.376Z,948.2
2017-03-25T01:19:22.519Z,948.2
2017-03-25T01:20:30.553Z,948.2
2017-03-25T01:21:38.840Z,948.2
2017-03-25T01:22:46.736Z,948.2
2017-03-25T01:23:55.325Z,948.2
2017-03-25T01:25:02.965Z,948.2
2017-03-25T01:26:11.003Z,948.2
2017-03-25T01:27:19.099Z,948.1
2017-03-25T01:28:27.178Z,948.2
2017-03-25T01:29:35.266Z,948.2
2017-03-25T01:30:43.469Z,948.2
2017-03-25T01:31:51.507Z,948.1
2017-03-25T01:32:59.691Z,948.2
2017-03-25T01:34:07.622Z,948.1
2017-03-25T01:35:15.706Z,948.1
2017-03-25T01:36:23.851Z,948.0
2017-03-25T01:37:31.885Z,948.1
2017-03-25T01:38:39.973Z,948.0
2017-03-25T01:39:48.561Z,948.0
2017-03-25T01:40:56.149Z,948.0
2017-03-25T01:42:04.295Z,948.0
2017-03-25T01:43:12.429Z,948.0
2017-03-25T01:44:20.423Z,948.0
2017-03-25T01:45:28.514Z,948.0
2017-03-25T01:46:36.597Z,947.9
2017-03-25T01:47:45.196Z,947.9
2017-03-25T01:48:52.782Z,947.9
2017-03-25T01:50:01.132Z,947.9
2017-03-25T01:51:08.956Z,947.9
2017-03-25T01:52:17.047Z,947.9
2017-03-25T01:53:25.203Z,947.8
2017-03-25T01:54:33.221Z,947.9
2017-03-25T01:55:41.373Z,947.9
2017-03-25T01:56:49.408Z,947.9
2017-03-25T01:57:57.547Z,947.9
2017-03-25T01:59:06.214Z,947.9
2017-03-25T02:00:13.672Z,947.9
2017-03-25T02:01:21.760Z,947.9
2017-03-25T02:02:29.858Z,947.8
2017-03-25T02:03:37.939Z,947.9
2017-03-25T02:04:46.092Z,947.8
2017-03-25T02:05:54.130Z,947.7
2017-03-25T02:07:02.213Z,947.7
2017-03-25T02:08:10.304Z,947.8
2017-03-25T02:09:18.391Z,947.7
2017-03-25T02:10:26.535Z,947.8
2017-03-25T02:11:35.074Z,947.8
2017-03-25T02:12:42.666Z,947.7
2017-03-25T02:13:50.907Z,947.7
2017-03-25T02:14:58.871Z,947.7
2017-03-25T02:16:06.991Z,947.7
2017-03-25T02:17:15.024Z,947.7
2017-03-25T02:18:23.113Z,947.7
2017-03-25T02:19:31.210Z,947.8
2017-03-25T02:20:39.294Z,947.7
2017-03-25T02:21:47.464Z,947.7
2017-03-25T02:22:55.473Z,947.8
2017-03-25T02:24:03.567Z,947.7
2017-03-25T02:25:11.779Z,947.8
2017-03-25T02:26:19.745Z,947.7
2017-03-25T02:27:28.340Z,947.8
2017-03-25T02:28:35.927Z,947.8
2017-03-25T02:29:44.017Z,947.7
2017-03-25T02:30:52.099Z,947.7
2017-03-25T02:32:00.190Z,947.7
2017-03-25T02:33:08.349Z,947.7
2017-03-25T02:34:16.388Z,947.7
2017-03-25T02:35:24.545Z,947.7
2017-03-25T02:36:32.734Z,947.6
2017-03-25T02:37:40.639Z,947.6
2017-03-25T02:38:48.787Z,947.6
2017-03-25T02:39:56.827Z,947.6
2017-03-25T02:41:04.911Z,947.6
2017-03-25T02:42:13.003Z,947.6
2017-03-25T02:43:21.598Z,947.5
2017-03-25T02:44:29.253Z,947.5
2017-03-25T02:45:37.276Z,947.6
2017-03-25T02:46:45.508Z,947.6
2017-03-25T02:47:53.459Z,947.5
2017-03-25T02:49:01.549Z,947.5
2017-03-25T02:50:09.761Z,947.6
2017-03-25T02:51:17.728Z,947.5
2017-03-25T02:52:25.820Z,947.5
2017-03-25T02:53:33.919Z,947.5
2017-03-25T02:54:41.998Z,947.5
2017-03-25T02:55:50.147Z,947.5
2017-03-25T02:56:58.279Z,947.6
2017-03-25T02:58:06.343Z,947.5
2017-03-25T02:59:14.861Z,947.5
2017-03-25T03:00:22.447Z,947.5
2017-03-25T03:01:30.590Z,947.5
2017-03-25T03:02:38.622Z,947.5
2017-03-25T03:03:46.714Z,947.4
2017-03-25T03:04:54.804Z,947.5
2017-03-25T03:06:02.886Z,947.5
2017-03-25T03:07:11.034Z,947.5
2017-03-25T03:08:19.111Z,947.5
2017-03-25T03:09:27.158Z,947.5
2017-03-25T03:10:35.245Z,947.4
2017-03-25T03:11:43.341Z,947.4
2017-03-25T03:12:51.520Z,947.4
2017-03-25T03:13:59.519Z,947.3
2017-03-25T03:15:08.117Z,947.2
2017-03-25T03:16:15.699Z,947.3
2017-03-25T03:17:23.792Z,947.3
2017-03-25T03:18:31.942Z,947.2
2017-03-25T03:19:39.966Z,947.3
2017-03-25T03:20:48.057Z,947.3
2017-03-25T03:21:56.148Z,947.3
2017-03-25T03:23:04.241Z,947.3
2017-03-25T03:24:12.398Z,947.3
2017-03-25T03:25:20.417Z,947.3
2017-03-25T03:26:28.507Z,947.3
2017-03-25T03:27:36.600Z,947.3
2017-03-25T03:28:44.811Z,947.2
2017-03-25T03:29:52.831Z,947.3
2017-03-25T03:31:01.371Z,947.2
2017-03-25T03:32:08.961Z,947.2
2017-03-25T03:33:17.045Z,947.3
2017-03-25T03:34:25.128Z,947.3
2017-03-25T03:35:33.283Z,947.3
2017-03-25T03:36:41.316Z,947.2
2017-03-25T03:37:49.400Z,947.3
2017-03-25T03:38:57.509Z,947.3
2017-03-25T03:40:05.709Z,947.3
2017-03-25T03:41:13.722Z,947.3
2017-03-25T03:42:21.752Z,947.3
2017-03-25T03:43:29.843Z,947.2
2017-03-25T03:44:37.931Z,947.3
2017-03-25T03:45:46.021Z,947.3
2017-03-25T03:46:54.616Z,947.3
2017-03-25T03:48:02.203Z,947.2
2017-03-25T03:49:10.289Z,947.2
2017-03-25T03:50:18.390Z,947.2
2017-03-25T03:51:26.463Z,947.1
2017-03-25T03:52:34.609Z,947.3
2017-03-25T03:53:42.638Z,947.2
2017-03-25T03:54:50.728Z,947.3
2017-03-25T03:55:58.830Z,947.3
2017-03-25T03:57:06.909Z,947.3
2017-03-25T03:58:15.052Z,947.3
2017-03-25T03:59:23.083Z,947.4
2017-03-25T04:00:31.280Z,947.3
2017-03-25T04:01:39.344Z,947.3
2017-03-25T04:02:47.852Z,947.4
2017-03-25T04:03:55.493Z,947.4
2017-03-25T04:05:03.523Z,947.3
2017-03-25T04:06:11.614Z,947.4
2017-03-25T04:07:19.701Z,947.3
2017-03-25T04:08:27.789Z,947.3
2017-03-25T04:09:35.935Z,947.4
2017-03-25T04:10:43.968Z,947.3
2017-03-25T04:11:52.086Z,947.4
2017-03-25T04:13:00.142Z,947.2
2017-03-25T04:14:08.231Z,947.2
2017-03-25T04:15:16.374Z,947.2
2017-03-25T04:16:24.433Z,947.2
2017-03-25T04:17:32.495Z,947.3
2017-03-25T04:18:41.091Z,947.4
2017-03-25T04:19:48.677Z,947.2
2017-03-25T04:20:56.814Z,947.3
2017-03-25T04:22:04.847Z,947.2
2017-03-25T04:23:12.942Z,947.3
2017-03-25T04:24:21.022Z,947.3
2017-03-25T04:25:29.106Z,947.3
2017-03-25T04:26:37.282Z,947.3
2017-03-25T04:27:45.390Z,947.3
2017-03-25T04:28:53.369Z,947.2
2017-03-25T04:30:01.465Z,947.2
2017-03-25T04:31:09.551Z,947.2
2017-03-25T04:32:17.690Z,947.2
2017-03-25T04:33:25.724Z,947.3
2017-03-25T04:34:34.327Z,947.2
2017-03-25T04:35:41.908Z,947.2
2017-03-25T04:36:49.992Z,947.2
2017-03-25T04:37:58.172Z,947.3
2017-03-25T04:39:06.172Z,947.2
2017-03-25T04:40:14.258Z,947.3
2017-03-25T04:41:22.359Z,947.3
2017-03-25T04:42:30.482Z,947.3
2017-03-25T04:43:39.053Z,947.3
2017-03-25T04:44:46.606Z,947.2
2017-03-25T04:45:54.698Z,947.3
2017-03-25T04:47:02.786Z,947.2
2017-03-25T04:48:10.869Z,947.3
2017-03-25T04:49:19.014Z,947.2
2017-03-25T04:50:27.106Z,947.2
2017-03-25T04:51:35.134Z,947.2
2017-03-25T04:52:43.220Z,947.2
2017-03-25T04:53:51.397Z,947.2
2017-03-25T04:54:59.902Z,947.2
2017-03-25T04:56:07.486Z,947.2
2017-03-25T04:57:15.574Z,947.2
2017-03-25T04:58:23.662Z,947.2
2017-03-25T04:59:31.755Z,947.3
2017-03-25T05:00:39.895Z,947.2
2017-03-25T05:01:47.930Z,947.2
2017-03-25T05:02:56.017Z,947.2
2017-03-25T05:04:04.190Z,947.2
2017-03-25T05:05:12.285Z,947.2
2017-03-25T05:06:20.402Z,947.2
2017-03-25T05:07:28.368Z,947.2
2017-03-25T05:08:36.454Z,947.2
2017-03-25T05:09:44.549Z,947.3
2017-03-25T05:10:52.638Z,947.3
2017-03-25T05:12:01.234Z,947.2
2017-03-25T05:13:08.816Z,947.3
2017-03-25T05:14:16.911Z,947.3
2017-03-25T05:15:25.109Z,947.3
2017-03-25T05:16:33.093Z,947.3
2017-03-25T05:17:41.228Z,947.3
2017-03-25T05:18:49.266Z,947.3
2017-03-25T05:19:57.352Z,947.3
2017-03-25T05:21:06.087Z,947.3
2017-03-25T05:22:13.583Z,947.2
2017-03-25T05:23:22.114Z,947.3
2017-03-25T05:24:29.692Z,947.2
2017-03-25T05:25:37.903Z,947.2
2017-03-25T05:26:45.967Z,947.2
2017-03-25T05:27:53.964Z,947.2
2017-03-25T05:29:02.101Z,947.2
2017-03-25T05:30:10.701Z,947.2
2017-03-25T05:31:18.840Z,947.1
2017-03-25T05:32:26.479Z,947.2
2017-03-25T05:33:34.535Z,947.1
2017-03-25T05:34:44.466Z,947.1
2017-03-25T05:35:50.924Z,947.1
2017-03-25T05:36:58.925Z,947.0
2017-03-25T05:38:07.404Z,947.0
2017-03-25T05:39:14.903Z,947.1
2017-03-25T05:40:24.761Z,947.0
2017-03-25T05:41:31.284Z,947.0
2017-03-25T05:42:39.226Z,947.0
2017-03-25T05:43:47.373Z,947.0
2017-03-25T05:44:55.264Z,947.0
2017-03-25T05:46:03.405Z,947.0
2017-03-25T05:47:11.433Z,947.1
2017-03-25T05:48:19.964Z,947.1
2017-03-25T05:49:27.610Z,947.1
2017-03-25T05:50:36.025Z,947.1
2017-03-25T05:51:44.034Z,947.2
2017-03-25T05:52:51.969Z,947.1
2017-03-25T05:54:00.463Z,947.2
2017-03-25T05:55:08.058Z,947.2
2017-03-25T05:56:16.772Z,947.2
2017-03-25T05:57:24.282Z,947.3
2017-03-25T05:58:32.312Z,947.2
2017-03-25T05:59:40.394Z,947.2
2017-03-25T06:00:48.488Z,947.2
2017-03-25T06:01:56.578Z,947.3
2017-03-25T06:03:04.779Z,947.3
2017-03-25T06:04:12.749Z,947.2
2017-03-25T06:05:20.838Z,947.2
2017-03-25T06:06:28.923Z,947.2
2017-03-25T06:07:37.190Z,947.2
2017-03-25T06:08:45.785Z,947.1
2017-03-25T06:09:53.250Z,947.1
2017-03-25T06:11:01.278Z,947.1
2017-03-25T06:12:09.364Z,947.0
2017-03-25T06:13:17.455Z,947.1
2017-03-25T06:14:25.594Z,947.1
2017-03-25T06:15:33.668Z,947.1
2017-03-25T06:16:41.711Z,947.1
2017-03-25T06:17:49.801Z,947.0
2017-03-25T06:18:58.049Z,947.0
2017-03-25T06:20:06.030Z,947.1
2017-03-25T06:21:14.061Z,947.1
2017-03-25T06:22:22.142Z,947.1
2017-03-25T06:23:30.231Z,947.0
2017-03-25T06:24:38.368Z,947.1
2017-03-25T06:25:46.912Z,947.1
2017-03-25T06:26:54.499Z,947.1
2017-03-25T06:28:02.592Z,947.0
2017-03-25T06:29:10.666Z,947.1
2017-03-25T06:30:18.944Z,947.0
2017-03-25T06:31:26.905Z,947.0
2017-03-25T06:32:34.939Z,947.0
2017-03-25T06:33:43.026Z,947.1
2017-03-25T06:34:51.111Z,947.0
2017-03-25T06:35:59.219Z,947.1
2017-03-25T06:37:07.793Z,947.1
2017-03-25T06:38:15.371Z,947.1
2017-03-25T06:39:23.456Z,947.1
2017-03-25T06:40:32.406Z,947.1
2017-03-25T06:41:40.827Z,947.1
2017-03-25T06:42:48.220Z,947.1
2017-03-25T06:43:55.805Z,947.1
2017-03-25T06:45:03.891Z,947.1
2017-03-25T06:46:11.974Z,947.1
2017-03-25T06:47:20.061Z,947.1
2017-03-25T06:48:28.652Z,947.1
2017-03-25T06:49:36.236Z,947.1
2017-03-25T06:50:44.421Z,947.1
2017-03-25T06:51:52.412Z,947.1
2017-03-25T06:53:00.494Z,947.1
2017-03-25T06:54:09.087Z,947.0
2017-03-25T06:55:16.875Z,947.0
2017-03-25T06:56:24.762Z,947.0
2017-03-25T06:57:32.905Z,947.0
2017-03-25T06:58:40.937Z,947.0
2017-03-25T06:59:49.149Z,947.0
2017-03-25T07:00:57.113Z,947.0
2017-03-25T07:02:05.258Z,947.1
2017-03-25T07:03:13.287Z,947.0
2017-03-25T07:04:21.377Z,947.0
2017-03-25T07:05:29.518Z,947.0
2017-03-25T07:06:37.732Z,946.9
2017-03-25T07:07:45.635Z,947.0
2017-03-25T07:08:53.719Z,947.0
2017-03-25T07:10:01.804Z,946.9
2017-03-25T07:11:09.944Z,946.9
2017-03-25T07:12:18.073Z,946.9
2017-03-25T07:13:26.127Z,946.9
2017-03-25T07:14:34.149Z,946.9
2017-03-25T07:15:42.243Z,946.9
2017-03-25T07:16:50.845Z,946.9
2017-03-25T07:17:58.411Z,946.9
2017-03-25T07:19:06.494Z,946.9
2017-03-25T07:20:14.580Z,946.9
2017-03-25T07:21:22.667Z,946.9
2017-03-25T07:22:31.272Z,946.9
2017-03-25T07:23:38.842Z,947.0
2017-03-25T07:24:46.932Z,946.9
2017-03-25T07:25:55.022Z,946.9
2017-03-25T07:27:03.445Z,946.8
2017-03-25T07:28:11.248Z,946.9
2017-03-25T07:29:19.377Z,946.9
2017-03-25T07:30:27.366Z,946.9
2017-03-25T07:31:35.454Z,946.9
2017-03-25T07:32:43.542Z,946.9
2017-03-25T07:33:52.130Z,946.9
2017-03-25T07:34:59.713Z,946.9
2017-03-25T07:36:07.808Z,946.9
2017-03-25T07:37:15.903Z,946.9
2017-03-25T07:38:23.987Z,946.9
2017-03-25T07:39:32.198Z,946.9
2017-03-25T07:40:40.161Z,946.9
2017-03-25T07:41:48.251Z,947.0
2017-03-25T07:42:56.344Z,947.0
2017-03-25T07:44:04.530Z,946.9
2017-03-25T07:45:12.567Z,947.0
2017-03-25T07:46:20.620Z,946.9
2017-03-25T07:47:28.693Z,946.9
2017-03-25T07:48:36.785Z,946.9
2017-03-25T07:49:44.870Z,947.0
2017-03-25T07:50:53.023Z,947.0
2017-03-25T07:52:01.047Z,947.0
2017-03-25T07:53:09.133Z,947.0
2017-03-25T07:54:17.391Z,947.0
2017-03-25T07:55:25.494Z,947.0
2017-03-25T07:56:33.895Z,946.9
2017-03-25T07:57:41.482Z,947.1
2017-03-25T07:58:49.573Z,947.1
2017-03-25T07:59:57.663Z,947.1
2017-03-25T08:01:05.844Z,947.1
2017-03-25T08:02:13.885Z,947.1
2017-03-25T08:03:21.915Z,947.1
2017-03-25T08:04:30.588Z,947.1
2017-03-25T08:05:38.240Z,947.2
2017-03-25T08:06:46.233Z,947.1
2017-03-25T08:07:54.317Z,947.1
2017-03-25T08:09:02.343Z,947.1
2017-03-25T08:10:10.438Z,947.2
2017-03-25T08:11:18.533Z,947.0
2017-03-25T08:12:26.606Z,947.1
2017-03-25T08:13:34.747Z,947.1
2017-03-25T08:14:42.779Z,947.1
2017-03-25T08:15:51.069Z,947.0
2017-03-25T08:16:59.193Z,947.1
2017-03-25T08:18:07.039Z,947.1
2017-03-25T08:19:15.186Z,947.0
2017-03-25T08:20:23.213Z,947.0
2017-03-25T08:21:31.487Z,946.9
2017-03-25T08:22:39.391Z,946.9
2017-03-25T08:23:47.479Z,946.9
2017-03-25T08:24:55.618Z,947.0
2017-03-25T08:26:03.650Z,947.0
2017-03-25T08:27:12.111Z,947.0
2017-03-25T08:28:19.831Z,947.0
2017-03-25T08:29:28.172Z,946.9
2017-03-25T08:30:36.512Z,946.9
2017-03-25T08:31:44.197Z,947.0
2017-03-25T08:32:52.234Z,947.0
2017-03-25T08:34:00.270Z,946.9
2017-03-25T08:35:08.357Z,946.9
2017-03-25T08:36:16.595Z,947.0
2017-03-25T08:37:24.714Z,947.0
2017-03-25T08:38:32.614Z,947.0
2017-03-25T08:39:40.700Z,946.9
2017-03-25T08:40:48.789Z,946.9
2017-03-25T08:41:57.249Z,946.9
2017-03-25T08:43:04.961Z,946.9
2017-03-25T08:44:13.046Z,947.0
2017-03-25T08:45:21.129Z,946.9
2017-03-25T08:46:29.225Z,946.9
2017-03-25T08:47:37.676Z,946.9
2017-03-25T08:48:45.447Z,946.8
2017-03-25T08:49:53.477Z,946.8
2017-03-25T08:51:01.562Z,946.9
2017-03-25T08:52:09.648Z,946.8
2017-03-25T08:53:18.244Z,946.8
2017-03-25T08:54:25.819Z,946.9
2017-03-25T08:55:33.909Z,946.8
2017-03-25T08:56:41.991Z,946.8
2017-03-25T08:57:50.240Z,946.8
2017-03-25T08:58:58.281Z,946.8
2017-03-25T09:00:06.248Z,946.8
2017-03-25T09:01:14.335Z,946.8
2017-03-25T09:02:22.422Z,946.8
2017-03-25T09:03:30.507Z,946.7
2017-03-25T09:04:38.649Z,946.7
2017-03-25T09:05:46.685Z,946.8
2017-03-25T09:06:54.771Z,946.7
2017-03-25T09:08:02.874Z,946.7
2017-03-25T09:09:11.418Z,946.6
2017-03-25T09:10:19.606Z,946.7
2017-03-25T09:11:27.118Z,946.8
2017-03-25T09:12:35.201Z,946.7
2017-03-25T09:13:43.293Z,946.7
2017-03-25T09:14:51.422Z,946.6
2017-03-25T09:15:59.520Z,946.8
2017-03-25T09:17:07.549Z,946.6
2017-03-25T09:18:15.641Z,946.7
2017-03-25T09:19:23.735Z,946.7
2017-03-25T09:20:31.877Z,946.6
2017-03-25T09:21:39.969Z,946.7
2017-03-25T09:22:47.997Z,946.6
2017-03-25T09:23:56.138Z,946.6
2017-03-25T09:25:04.198Z,946.5
2017-03-25T09:26:12.929Z,946.5
2017-03-25T09:27:20.482Z,946.6
2017-03-25T09:28:28.721Z,946.5
2017-03-25T09:29:36.545Z,946.5
2017-03-25T09:30:44.778Z,946.6
2017-03-25T09:31:52.721Z,946.6
2017-03-25T09:33:01.319Z,946.6
2017-03-25T09:34:09.433Z,946.6
2017-03-25T09:35:17.003Z,946.5
2017-03-25T09:36:25.859Z,946.6
2017-03-25T09:37:33.172Z,946.6
2017-03-25T09:38:41.377Z,946.6
2017-03-25T09:39:49.347Z,946.6
2017-03-25T09:40:57.515Z,946.6
2017-03-25T09:42:05.517Z,946.6
2017-03-25T09:43:13.616Z,946.6
2017-03-25T09:44:21.756Z,946.5
2017-03-25T09:45:29.789Z,946.5
2017-03-25T09:46:37.960Z,946.6
2017-03-25T09:47:45.957Z,946.6
2017-03-25T09:48:54.048Z,946.5
2017-03-25T09:50:02.639Z,946.4
2017-03-25T09:51:10.420Z,946.5
2017-03-25T09:52:18.362Z,946.5
2017-03-25T09:53:26.399Z,946.4
2017-03-25T09:54:34.485Z,946.5
2017-03-25T09:55:42.625Z,946.4
2017-03-25T09:56:50.659Z,946.3
2017-03-25T09:57:58.746Z,946.5
2017-03-25T09:59:06.830Z,946.4
2017-03-25T10:00:14.916Z,946.3
2017-03-25T10:01:23.184Z,946.4
2017-03-25T10:02:31.203Z,946.2
2017-03-25T10:03:39.181Z,946.3
2017-03-25T10:04:47.265Z,946.3
2017-03-25T10:05:55.354Z,946.2
2017-03-25T10:07:03.493Z,946.2
2017-03-25T10:08:11.580Z,946.2
2017-03-25T10:09:19.613Z,946.2
2017-03-25T10:10:27.699Z,946.1
2017-03-25T10:11:35.783Z,946.1
2017-03-25T10:12:44.032Z,946.1
2017-03-25T10:13:51.965Z,946.1
2017-03-25T10:15:00.043Z,946.1
2017-03-25T10:16:08.128Z,946.0
2017-03-25T10:17:16.238Z,946.1
2017-03-25T10:18:24.362Z,946.0
2017-03-25T10:19:32.388Z,946.0
2017-03-25T10:20:40.524Z,946.0
2017-03-25T10:21:48.564Z,946.0
2017-03-25T10:22:56.781Z,946.1
2017-03-25T10:24:04.898Z,946.0
2017-03-25T10:25:12.820Z,946.0
2017-03-25T10:26:20.989Z,946.0
2017-03-25T10:27:28.995Z,945.9
2017-03-25T10:28:37.084Z,945.9
2017-03-25T10:29:46.252Z,945.9
2017-03-25T10:30:53.252Z,946.0
2017-03-25T10:32:01.334Z,945.9
2017-03-25T10:33:09.424Z,946.0
2017-03-25T10:34:17.545Z,945.9
2017-03-25T10:35:25.648Z,945.9
2017-03-25T10:36:33.680Z,945.9
2017-03-25T10:37:41.766Z,945.9
2017-03-25T10:38:49.852Z,945.9
2017-03-25T10:39:57.994Z,945.9
2017-03-25T10:41:06.526Z,945.9
2017-03-25T10:42:14.135Z,945.9
2017-03-25T10:43:22.192Z,945.9
2017-03-25T10:44:30.379Z,945.9
2017-03-25T10:45:38.458Z,946.0
2017-03-25T10:46:46.950Z,945.9
2017-03-25T10:47:54.536Z,945.8
2017-03-25T10:49:02.622Z,945.8
2017-03-25T10:50:10.720Z,945.8
2017-03-25T10:51:18.790Z,945.9
2017-03-25T10:52:26.935Z,945.8
2017-03-25T10:53:34.965Z,945.8
2017-03-25T10:54:43.047Z,945.7
2017-03-25T10:55:51.235Z,945.7
2017-03-25T10:56:59.222Z,945.7
2017-03-25T10:58:07.358Z,945.8
2017-03-25T10:59:15.387Z,945.8
2017-03-25T11:00:23.491Z,945.8
2017-03-25T11:01:31.567Z,945.7
2017-03-25T11:02:39.652Z,945.7
2017-03-25T11:03:48.247Z,945.6
2017-03-25T11:04:56.073Z,945.6
2017-03-25T11:06:03.907Z,945.6
2017-03-25T11:07:12.087Z,945.6
2017-03-25T11:08:20.077Z,945.6
2017-03-25T11:09:28.667Z,945.6
2017-03-25T11:10:36.251Z,945.6
2017-03-25T11:11:44.395Z,945.7
2017-03-25T11:12:52.424Z,945.5
2017-03-25T11:14:00.508Z,945.7
2017-03-25T11:15:08.647Z,945.6
2017-03-25T11:16:16.678Z,945.6
2017-03-25T11:17:24.775Z,945.5
2017-03-25T11:18:32.856Z,945.6
2017-03-25T11:19:40.946Z,945.6
2017-03-25T11:20:49.090Z,945.5
2017-03-25T11:21:57.257Z,945.5
2017-03-25T11:23:05.340Z,945.5
2017-03-25T11:24:13.292Z,945.4
2017-03-25T11:25:21.373Z,945.5
2017-03-25T11:26:29.513Z,945.5
2017-03-25T11:27:38.055Z,945.4
2017-03-25T11:28:45.634Z,945.5
2017-03-25T11:29:53.721Z,945.4
2017-03-25T11:31:01.800Z,945.4
2017-03-25T11:32:09.948Z,945.4
2017-03-25T11:33:18.137Z,945.3
2017-03-25T11:34:26.065Z,945.4
2017-03-25T11:35:34.151Z,945.3
2017-03-25T11:36:42.237Z,945.3
2017-03-25T11:37:50.827Z,945.2
2017-03-25T11:38:58.412Z,945.3
2017-03-25T11:40:06.511Z,945.3
2017-03-25T11:41:14.579Z,945.3
2017-03-25T11:42:22.662Z,945.2
2017-03-25T11:43:30.942Z,945.3
2017-03-25T11:44:38.953Z,945.2
2017-03-25T11:45:46.924Z,945.2
2017-03-25T11:46:55.011Z,945.2
2017-03-25T11:48:03.098Z,945.1
2017-03-25T11:49:11.238Z,945.2
2017-03-25T11:50:19.263Z,945.2
2017-03-25T11:51:27.354Z,945.1
2017-03-25T11:52:35.440Z,945.1
2017-03-25T11:53:43.523Z,945.2
2017-03-25T11:54:52.271Z,945.2
2017-03-25T11:55:59.695Z,945.1
2017-03-25T11:57:07.775Z,945.2
2017-03-25T11:58:15.861Z,945.2
2017-03-25T11:59:24.009Z,945.2
2017-03-25T12:00:32.101Z,945.2
2017-03-25T12:01:40.129Z,945.1
2017-03-25T12:02:48.220Z,945.0
2017-03-25T12:03:56.305Z,945.0
2017-03-25T12:05:04.447Z,945.0
2017-03-25T12:06:13.011Z,944.9
2017-03-25T12:07:20.565Z,945.0
2017-03-25T12:08:28.651Z,944.9
2017-03-25T12:09:36.917Z,945.0
2017-03-25T12:10:44.821Z,945.0
2017-03-25T12:11:53.800Z,944.9
2017-03-25T12:13:01.089Z,945.0
2017-03-25T12:14:09.191Z,945.0
2017-03-25T12:15:17.766Z,945.0
2017-03-25T12:16:25.247Z,944.9
2017-03-25T12:17:33.449Z,944.9
2017-03-25T12:18:41.419Z,944.9
2017-03-25T12:19:49.505Z,944.7
2017-03-25T12:20:57.583Z,944.8
2017-03-25T12:22:06.340Z,944.8
2017-03-25T12:23:14.263Z,944.8
2017-03-25T12:24:22.382Z,944.7
2017-03-25T12:25:29.989Z,944.8
2017-03-25T12:26:38.093Z,944.8
2017-03-25T12:27:46.166Z,944.7
2017-03-25T12:28:55.693Z,944.6
2017-03-25T12:30:02.270Z,944.6
2017-03-25T12:31:10.423Z,944.6
2017-03-25T12:32:18.542Z,944.6
2017-03-25T12:33:26.540Z,944.6
2017-03-25T12:34:35.133Z,944.6
2017-03-25T12:35:42.712Z,944.6
2017-03-25T12:36:50.800Z,944.6
2017-03-25T12:37:58.890Z,944.7
2017-03-25T12:39:06.972Z,944.7
2017-03-25T12:40:15.114Z,944.6
2017-03-25T12:41:23.143Z,944.5
2017-03-25T12:42:31.417Z,944.5
2017-03-25T12:43:39.388Z,944.3
2017-03-25T12:44:47.396Z,944.4
2017-03-25T12:45:55.538Z,944.4
2017-03-25T12:47:03.627Z,944.4
2017-03-25T12:48:11.693Z,944.4
2017-03-25T12:49:19.763Z,944.4
2017-03-25T12:50:27.825Z,944.3
2017-03-25T12:51:35.968Z,944.2
2017-03-25T12:52:43.997Z,944.3
2017-03-25T12:53:52.085Z,944.3
2017-03-25T12:55:00.174Z,944.3
2017-03-25T12:56:08.254Z,944.1
2017-03-25T12:57:16.396Z,944.2
2017-03-25T12:58:24.429Z,944.2
2017-03-25T12:59:32.510Z,944.2
2017-03-25T13:00:40.595Z,944.2
2017-03-25T13:01:48.682Z,944.2
2017-03-25T13:02:56.893Z,944.3
2017-03-25T13:04:05.025Z,944.2
2017-03-25T13:05:13.106Z,944.2
2017-03-25T13:06:21.030Z,944.1
2017-03-25T13:07:29.118Z,944.1
2017-03-25T13:08:37.705Z,944.1
2017-03-25T13:09:45.293Z,944.2
2017-03-25T13:10:53.375Z,944.0
2017-03-25T13:12:01.459Z,944.0
2017-03-25T13:13:09.547Z,944.0
2017-03-25T13:14:17.698Z,943.8
2017-03-25T13:15:25.882Z,943.9
2017-03-25T13:16:33.810Z,944.1
2017-03-25T13:17:41.896Z,944.0
2017-03-25T13:18:50.036Z,944.0
2017-03-25T13:19:58.117Z,944.0
2017-03-25T13:21:06.197Z,943.9
2017-03-25T13:22:14.235Z,943.9
2017-03-25T13:23:22.325Z,943.8
2017-03-25T13:24:30.401Z,943.9
2017-03-25T13:25:39.185Z,943.8
2017-03-25T13:26:46.754Z,943.9
2017-03-25T13:27:54.661Z,943.9
2017-03-25T13:29:02.739Z,943.8
2017-03-25T13:30:10.831Z,943.8
2017-03-25T13:31:18.971Z,943.7
2017-03-25T13:32:27.001Z,943.7
2017-03-25T13:33:35.087Z,943.7
2017-03-25T13:34:43.232Z,943.8
2017-03-25T13:35:51.844Z,943.8
2017-03-25T13:36:59.546Z,943.7
2017-03-25T13:38:07.427Z,943.7
2017-03-25T13:39:15.514Z,943.6
2017-03-25T13:40:23.596Z,943.6
2017-03-25T13:41:31.683Z,943.6
2017-03-25T13:42:39.902Z,943.6
2017-03-25T13:43:47.845Z,943.7
2017-03-25T13:44:55.931Z,943.6
2017-03-25T13:46:04.028Z,943.5
2017-03-25T13:47:12.252Z,943.5
2017-03-25T13:48:20.385Z,943.5
2017-03-25T13:49:28.283Z,943.5
2017-03-25T13:50:36.426Z,943.4
2017-03-25T13:51:44.453Z,943.5
2017-03-25T13:52:52.539Z,943.4
2017-03-25T13:54:01.139Z,943.5
2017-03-25T13:55:08.726Z,943.5
2017-03-25T13:56:16.808Z,943.4
2017-03-25T13:57:24.900Z,943.4
2017-03-25T13:58:33.095Z,943.4
2017-03-25T13:59:41.121Z,943.4
2017-03-25T14:00:49.176Z,943.4
2017-03-25T14:01:57.239Z,943.4
2017-03-25T14:03:05.326Z,943.2
2017-03-25T14:04:13.405Z,943.3
2017-03-25T14:05:22.003Z,943.2
2017-03-25T14:06:29.641Z,943.2
2017-03-25T14:07:37.669Z,943.2
2017-03-25T14:08:45.757Z,943.1
2017-03-25T14:09:54.000Z,943.2
2017-03-25T14:11:01.978Z,943.2
2017-03-25T14:12:10.004Z,943.2
2017-03-25T14:13:18.094Z,943.1
2017-03-25T14:14:26.179Z,943.2
2017-03-25T14:15:34.267Z,943.1
2017-03-25T14:16:42.477Z,943.1
2017-03-25T14:17:50.443Z,943.2
2017-03-25T14:18:58.526Z,943.0
2017-03-25T14:20:06.747Z,943.2
2017-03-25T14:21:14.842Z,943.1
2017-03-25T14:22:22.842Z,943.1
2017-03-25T14:23:30.868Z,943.2
2017-03-25T14:24:38.953Z,943.2
2017-03-25T14:25:47.042Z,943.1
2017-03-25T14:26:55.180Z,943.1
2017-03-25T14:28:03.714Z,943.1
2017-03-25T14:29:11.299Z,943.1
2017-03-25T14:30:19.382Z,943.2
2017-03-25T14:31:27.588Z,943.2
2017-03-25T14:32:35.548Z,943.1
2017-03-25T14:33:43.690Z,943.2
2017-03-25T14:34:51.716Z,943.2
2017-03-25T14:35:59.802Z,943.2
2017-03-25T14:37:07.892Z,943.2